sensor_id;sensor_type;location;lat;lon;timestamp;temperature;humidity
10512;DHT22;5304;48.604;2.096;2023-11-18T04:33:21;9.30;99.90
10512;DHT22;5304;48.604;2.096;2023-11-18T04:36:07;9.40;99.90
10512;DHT22;5304;48.604;2.096;2023-11-18T04:38:53;9.30;99.90
10512;DHT22;5304;48.604;2.096;2023-11-18T04:41:38;9.30;99.90
10512;DHT22;5304;48.604;2.096;2023-11-18T04:44:22;9.40;99.90
10512;DHT22;5304;48.604;2.096;2023-11-18T04:47:06;9.30;99.90
10512;DHT22;5304;48.604;2.096;2023-11-18T04:49:51;9.30;99.90
10512;DHT22;5304;48.604;2.096;2023-11-18T04:52:36;9.40;99.90
10512;DHT22;5304;48.604;2.096;2023-11-18T04:55:20;9.30;99.90
10512;DHT22;5304;48.604;2.096;2023-11-18T04:58:04;9.30;99.90
10512;DHT22;5304;48.604;2.096;2023-11-18T05:00:50;9.40;99.90
10512;DHT22;5304;48.604;2.096;2023-11-18T05:03:35;9.30;99.90
10512;DHT22;5304;48.604;2.096;2023-11-18T05:06:20;9.30;99.90
10512;DHT22;5304;48.604;2.096;2023-11-18T05:09:04;9.30;99.90
10512;DHT22;5304;48.604;2.096;2023-11-18T05:11:52;9.30;99.90
10512;DHT22;5304;48.604;2.096;2023-11-18T05:14:36;9.30;99.90
10512;DHT22;5304;48.604;2.096;2023-11-18T05:17:23;9.30;99.90
10512;DHT22;5304;48.604;2.096;2023-11-18T05:20:07;9.30;99.90
10512;DHT22;5304;48.604;2.096;2023-11-18T05:22:53;9.30;99.90
10512;DHT22;5304;48.604;2.096;2023-11-18T05:25:39;9.30;99.90
10512;DHT22;5304;48.604;2.096;2023-11-18T05:28:24;9.30;99.90
10512;DHT22;5304;48.604;2.096;2023-11-18T05:31:09;9.30;99.90
10512;DHT22;5304;48.604;2.096;2023-11-18T05:33:53;9.30;99.90
10512;DHT22;5304;48.604;2.096;2023-11-18T05:36:39;9.30;99.90
10512;DHT22;5304;48.604;2.096;2023-11-18T05:39:24;9.30;99.90
10512;DHT22;5304;48.604;2.096;2023-11-18T05:42:12;9.20;99.90
10512;DHT22;5304;48.604;2.096;2023-11-18T05:44:56;9.20;99.90
10512;DHT22;5304;48.604;2.096;2023-11-18T05:47:43;9.20;99.90
10512;DHT22;5304;48.604;2.096;2023-11-18T05:50:27;9.20;99.90
10512;DHT22;5304;48.604;2.096;2023-11-18T05:53:11;9.20;99.90
10512;DHT22;5304;48.604;2.096;2023-11-18T05:55:55;9.20;99.90
10512;DHT22;5304;48.604;2.096;2023-11-18T05:58:40;9.20;99.90
10512;DHT22;5304;48.604;2.096;2023-11-18T06:01:24;9.10;99.90
10512;DHT22;5304;48.604;2.096;2023-11-18T06:04:11;9.20;99.90
10512;DHT22;5304;48.604;2.096;2023-11-18T06:06:55;9.20;99.90
10512;DHT22;5304;48.604;2.096;2023-11-18T06:09:41;9.20;99.90
10512;DHT22;5304;48.604;2.096;2023-11-18T06:12:28;9.20;99.90
10512;DHT22;5304;48.604;2.096;2023-11-18T06:15:12;9.20;99.90
10512;DHT22;5304;48.604;2.096;2023-11-18T06:17:58;9.20;99.90
10512;DHT22;5304;48.604;2.096;2023-11-18T06:20:42;9.20;99.90
10512;DHT22;5304;48.604;2.096;2023-11-18T06:23:27;9.30;99.90
10512;DHT22;5304;48.604;2.096;2023-11-18T06:26:11;9.20;99.90
10512;DHT22;5304;48.604;2.096;2023-11-18T06:28:56;9.20;99.90
10512;DHT22;5304;48.604;2.096;2023-11-18T06:31:40;9.20;99.90
10512;DHT22;5304;48.604;2.096;2023-11-18T06:34:24;9.20;99.90
10512;DHT22;5304;48.604;2.096;2023-11-18T06:37:11;9.20;99.90
10512;DHT22;5304;48.604;2.096;2023-11-18T06:39:55;9.10;99.90
10512;DHT22;5304;48.604;2.096;2023-11-18T06:42:39;9.20;99.90
10512;DHT22;5304;48.604;2.096;2023-11-18T06:45:23;9.20;99.90
10512;DHT22;5304;48.604;2.096;2023-11-18T06:48:08;9.10;99.90
10512;DHT22;5304;48.604;2.096;2023-11-18T06:50:52;9.10;99.90
10512;DHT22;5304;48.604;2.096;2023-11-18T06:53:37;9.20;99.90
10512;DHT22;5304;48.604;2.096;2023-11-18T06:56:22;9.20;99.90
10512;DHT22;5304;48.604;2.096;2023-11-18T06:59:06;9.20;99.90
10512;DHT22;5304;48.604;2.096;2023-11-18T07:01:50;9.20;99.90
10512;DHT22;5304;48.604;2.096;2023-11-18T07:04:35;9.20;99.90
10512;DHT22;5304;48.604;2.096;2023-11-18T07:07:19;9.20;99.90
10512;DHT22;5304;48.604;2.096;2023-11-18T07:10:04;9.30;99.90
10512;DHT22;5304;48.604;2.096;2023-11-18T07:12:49;9.20;99.90
10512;DHT22;5304;48.604;2.096;2023-11-18T07:15:33;9.20;99.90
10512;DHT22;5304;48.604;2.096;2023-11-18T07:18:17;9.10;99.90
10512;DHT22;5304;48.604;2.096;2023-11-18T07:21:03;9.20;99.90
10512;DHT22;5304;48.604;2.096;2023-11-18T07:23:48;9.30;99.90
10512;DHT22;5304;48.604;2.096;2023-11-18T07:26:33;9.20;99.90
10512;DHT22;5304;48.604;2.096;2023-11-18T07:29:17;9.20;99.90
10512;DHT22;5304;48.604;2.096;2023-11-18T07:32:02;9.10;99.90
10512;DHT22;5304;48.604;2.096;2023-11-18T07:34:49;9.20;99.90
10512;DHT22;5304;48.604;2.096;2023-11-18T07:37:35;9.20;99.90
10512;DHT22;5304;48.604;2.096;2023-11-18T07:40:19;9.20;99.90
10512;DHT22;5304;48.604;2.096;2023-11-18T07:43:12;9.20;99.90
10512;DHT22;5304;48.604;2.096;2023-11-18T07:45:56;9.20;99.90
10512;DHT22;5304;48.604;2.096;2023-11-18T07:48:41;9.30;99.90
10512;DHT22;5304;48.604;2.096;2023-11-18T07:51:25;9.30;99.90
10512;DHT22;5304;48.604;2.096;2023-11-18T07:54:09;9.30;99.90
10512;DHT22;5304;48.604;2.096;2023-11-18T07:56:54;9.30;99.90
10512;DHT22;5304;48.604;2.096;2023-11-18T07:59:38;9.30;99.90
10512;DHT22;5304;48.604;2.096;2023-11-18T08:02:22;9.30;99.90
10512;DHT22;5304;48.604;2.096;2023-11-18T08:05:07;9.40;99.90
10512;DHT22;5304;48.604;2.096;2023-11-18T08:07:51;9.40;99.90
10512;DHT22;5304;48.604;2.096;2023-11-18T08:10:38;9.40;99.90
10512;DHT22;5304;48.604;2.096;2023-11-18T08:13:23;9.50;99.90
10512;DHT22;5304;48.604;2.096;2023-11-18T08:16:08;9.40;99.90
10512;DHT22;5304;48.604;2.096;2023-11-18T08:18:52;9.50;99.90
10512;DHT22;5304;48.604;2.096;2023-11-18T08:21:37;9.50;99.90
10512;DHT22;5304;48.604;2.096;2023-11-18T08:24:25;9.50;99.90
10512;DHT22;5304;48.604;2.096;2023-11-18T08:27:10;9.50;99.90
10512;DHT22;5304;48.604;2.096;2023-11-18T08:29:55;9.50;99.90
10512;DHT22;5304;48.604;2.096;2023-11-18T08:32:40;9.60;99.90
10512;DHT22;5304;48.604;2.096;2023-11-18T08:35:24;9.60;99.90
10512;DHT22;5304;48.604;2.096;2023-11-18T08:38:09;9.60;99.90
10512;DHT22;5304;48.604;2.096;2023-11-18T08:40:56;9.60;99.90
10512;DHT22;5304;48.604;2.096;2023-11-18T08:43:40;9.60;99.90
10512;DHT22;5304;48.604;2.096;2023-11-18T08:46:30;9.60;99.90
10512;DHT22;5304;48.604;2.096;2023-11-18T08:49:16;9.60;99.90
10512;DHT22;5304;48.604;2.096;2023-11-18T08:52:05;9.70;99.90
10512;DHT22;5304;48.604;2.096;2023-11-18T08:54:53;9.70;99.90
10512;DHT22;5304;48.604;2.096;2023-11-18T08:57:58;9.80;99.90
10512;DHT22;5304;48.604;2.096;2023-11-18T09:00:43;9.80;99.90
10512;DHT22;5304;48.604;2.096;2023-11-18T09:03:30;9.80;99.90
10512;DHT22;5304;48.604;2.096;2023-11-18T09:06:20;9.80;99.90
10512;DHT22;5304;48.604;2.096;2023-11-18T09:09:11;9.80;99.90
10512;DHT22;5304;48.604;2.096;2023-11-18T09:11:59;9.80;99.90
10512;DHT22;5304;48.604;2.096;2023-11-18T09:14:43;9.80;99.90
10512;DHT22;5304;48.604;2.096;2023-11-18T09:17:30;9.80;99.90
10512;DHT22;5304;48.604;2.096;2023-11-18T09:20:14;9.80;99.90
10512;DHT22;5304;48.604;2.096;2023-11-18T09:23:01;9.90;99.90
10512;DHT22;5304;48.604;2.096;2023-11-18T09:25:46;9.90;99.90
10512;DHT22;5304;48.604;2.096;2023-11-18T09:28:31;9.90;99.90
10512;DHT22;5304;48.604;2.096;2023-11-18T09:31:15;9.90;99.90
10512;DHT22;5304;48.604;2.096;2023-11-18T09:34:00;10.00;99.90
10512;DHT22;5304;48.604;2.096;2023-11-18T09:36:45;10.00;99.90
10512;DHT22;5304;48.604;2.096;2023-11-18T09:39:29;10.00;99.90
10512;DHT22;5304;48.604;2.096;2023-11-18T09:42:14;10.00;99.90
10512;DHT22;5304;48.604;2.096;2023-11-18T09:45:03;10.00;99.90
10512;DHT22;5304;48.604;2.096;2023-11-18T09:47:51;10.00;99.90
10512;DHT22;5304;48.604;2.096;2023-11-18T09:50:37;10.10;99.90
10512;DHT22;5304;48.604;2.096;2023-11-18T09:53:22;10.10;99.90
10512;DHT22;5304;48.604;2.096;2023-11-18T09:56:17;10.10;99.90
10512;DHT22;5304;48.604;2.096;2023-11-18T09:59:32;10.20;99.90
10512;DHT22;5304;48.604;2.096;2023-11-18T10:02:22;10.20;99.90
10512;DHT22;5304;48.604;2.096;2023-11-18T10:05:09;10.20;99.90
10512;DHT22;5304;48.604;2.096;2023-11-18T10:07:56;10.20;99.90
10512;DHT22;5304;48.604;2.096;2023-11-18T10:10:45;10.20;99.90
10512;DHT22;5304;48.604;2.096;2023-11-18T10:13:30;10.30;99.90
10512;DHT22;5304;48.604;2.096;2023-11-18T10:16:14;10.30;99.90
10512;DHT22;5304;48.604;2.096;2023-11-18T10:18:58;10.40;99.90
10512;DHT22;5304;48.604;2.096;2023-11-18T10:21:45;10.30;99.90
10512;DHT22;5304;48.604;2.096;2023-11-18T10:24:45;10.40;99.90
10512;DHT22;5304;48.604;2.096;2023-11-18T10:27:29;10.40;99.90
10512;DHT22;5304;48.604;2.096;2023-11-18T10:30:14;10.40;99.90
10512;DHT22;5304;48.604;2.096;2023-11-18T10:33:03;10.40;99.90
10512;DHT22;5304;48.604;2.096;2023-11-18T10:35:51;10.40;99.90
10512;DHT22;5304;48.604;2.096;2023-11-18T10:38:40;10.40;99.90
10512;DHT22;5304;48.604;2.096;2023-11-18T10:41:40;10.50;99.90
10512;DHT22;5304;48.604;2.096;2023-11-18T10:44:26;10.50;99.90
10512;DHT22;5304;48.604;2.096;2023-11-18T10:47:11;10.50;99.90
10512;DHT22;5304;48.604;2.096;2023-11-18T10:49:58;10.50;99.90
10512;DHT22;5304;48.604;2.096;2023-11-18T10:52:45;10.60;99.90
10512;DHT22;5304;48.604;2.096;2023-11-18T10:55:37;10.60;99.90
10512;DHT22;5304;48.604;2.096;2023-11-18T10:58:21;10.60;99.90
10512;DHT22;5304;48.604;2.096;2023-11-18T11:01:05;10.70;99.90
10512;DHT22;5304;48.604;2.096;2023-11-18T11:03:55;10.70;99.90
10512;DHT22;5304;48.604;2.096;2023-11-18T11:06:47;10.70;99.90
10512;DHT22;5304;48.604;2.096;2023-11-18T11:09:40;10.80;99.90
10512;DHT22;5304;48.604;2.096;2023-11-18T11:12:26;10.80;99.90
10512;DHT22;5304;48.604;2.096;2023-11-18T11:15:18;10.80;99.90
10512;DHT22;5304;48.604;2.096;2023-11-18T11:18:07;10.80;99.90
10512;DHT22;5304;48.604;2.096;2023-11-18T11:21:14;10.80;99.90
10512;DHT22;5304;48.604;2.096;2023-11-18T11:24:29;10.90;99.90
10512;DHT22;5304;48.604;2.096;2023-11-18T11:27:29;10.90;99.90
10512;DHT22;5304;48.604;2.096;2023-11-18T11:30:23;10.90;99.90
10512;DHT22;5304;48.604;2.096;2023-11-18T11:33:14;10.90;99.90
10512;DHT22;5304;48.604;2.096;2023-11-18T11:36:02;10.90;99.90
10512;DHT22;5304;48.604;2.096;2023-11-18T11:38:49;10.90;99.90
10512;DHT22;5304;48.604;2.096;2023-11-18T11:41:35;10.90;99.90
10512;DHT22;5304;48.604;2.096;2023-11-18T11:44:20;11.00;99.90
10512;DHT22;5304;48.604;2.096;2023-11-18T11:47:04;11.00;99.90
10512;DHT22;5304;48.604;2.096;2023-11-18T11:50:09;11.00;99.90
10512;DHT22;5304;48.604;2.096;2023-11-18T11:53:10;11.10;99.90
10512;DHT22;5304;48.604;2.096;2023-11-18T11:56:01;11.10;99.90
10512;DHT22;5304;48.604;2.096;2023-11-18T11:58:57;11.10;99.90
10512;DHT22;5304;48.604;2.096;2023-11-18T12:01:43;11.20;99.90
10512;DHT22;5304;48.604;2.096;2023-11-18T12:04:39;11.20;99.90
10512;DHT22;5304;48.604;2.096;2023-11-18T12:07:26;11.10;99.90
10512;DHT22;5304;48.604;2.096;2023-11-18T12:10:15;11.30;99.90
10512;DHT22;5304;48.604;2.096;2023-11-18T12:13:11;11.20;99.90
10512;DHT22;5304;48.604;2.096;2023-11-18T12:16:00;11.20;99.90
10512;DHT22;5304;48.604;2.096;2023-11-18T12:19:31;11.30;99.90
10512;DHT22;5304;48.604;2.096;2023-11-18T12:23:04;11.30;99.90
10512;DHT22;5304;48.604;2.096;2023-11-18T12:25:58;11.30;99.90
10512;DHT22;5304;48.604;2.096;2023-11-18T12:28:42;11.30;99.90
10512;DHT22;5304;48.604;2.096;2023-11-18T12:31:41;11.30;99.90
10512;DHT22;5304;48.604;2.096;2023-11-18T12:34:49;11.30;99.90
10512;DHT22;5304;48.604;2.096;2023-11-18T12:40:52;11.30;99.90
10512;DHT22;5304;48.604;2.096;2023-11-18T12:43:52;11.50;99.90
10512;DHT22;5304;48.604;2.096;2023-11-18T12:46:54;11.40;99.90
10512;DHT22;5304;48.604;2.096;2023-11-18T12:49:41;11.40;99.90
10512;DHT22;5304;48.604;2.096;2023-11-18T12:52:26;11.40;99.90
10512;DHT22;5304;48.604;2.096;2023-11-18T12:55:12;11.40;99.90
10512;DHT22;5304;48.604;2.096;2023-11-18T12:58:03;11.40;99.90
10512;DHT22;5304;48.604;2.096;2023-11-18T13:00:49;11.40;99.90
10512;DHT22;5304;48.604;2.096;2023-11-18T13:03:33;11.40;99.90
10512;DHT22;5304;48.604;2.096;2023-11-18T13:06:19;11.40;99.90
10512;DHT22;5304;48.604;2.096;2023-11-18T13:09:03;11.50;99.90
10512;DHT22;5304;48.604;2.096;2023-11-18T13:11:57;11.50;99.90
10512;DHT22;5304;48.604;2.096;2023-11-18T13:14:42;11.50;99.90
10512;DHT22;5304;48.604;2.096;2023-11-18T13:17:27;11.60;99.90
10512;DHT22;5304;48.604;2.096;2023-11-18T13:20:15;11.60;99.90
10512;DHT22;5304;48.604;2.096;2023-11-18T13:23:02;11.60;99.90
10512;DHT22;5304;48.604;2.096;2023-11-18T13:25:56;11.60;99.90
10512;DHT22;5304;48.604;2.096;2023-11-18T13:28:44;11.60;99.90
10512;DHT22;5304;48.604;2.096;2023-11-18T13:31:29;11.60;99.90
10512;DHT22;5304;48.604;2.096;2023-11-18T13:34:13;11.60;99.90
10512;DHT22;5304;48.604;2.096;2023-11-18T13:36:58;11.70;99.90
10512;DHT22;5304;48.604;2.096;2023-11-18T13:39:52;11.70;99.90
10512;DHT22;5304;48.604;2.096;2023-11-18T13:42:38;11.60;99.90
10512;DHT22;5304;48.604;2.096;2023-11-18T13:45:23;11.70;99.90
10512;DHT22;5304;48.604;2.096;2023-11-18T13:48:11;11.70;99.90
10512;DHT22;5304;48.604;2.096;2023-11-18T13:50:57;11.70;99.90
10512;DHT22;5304;48.604;2.096;2023-11-18T13:53:42;11.70;99.90
10512;DHT22;5304;48.604;2.096;2023-11-18T13:56:30;11.70;99.90
10512;DHT22;5304;48.604;2.096;2023-11-18T13:59:16;11.70;99.90
10512;DHT22;5304;48.604;2.096;2023-11-18T14:02:00;11.70;99.90
10512;DHT22;5304;48.604;2.096;2023-11-18T14:04:50;11.80;99.90
10512;DHT22;5304;48.604;2.096;2023-11-18T14:07:38;11.80;99.90
10512;DHT22;5304;48.604;2.096;2023-11-18T14:10:23;11.80;99.90
10512;DHT22;5304;48.604;2.096;2023-11-18T14:13:09;11.80;99.90
10512;DHT22;5304;48.604;2.096;2023-11-18T14:15:59;11.80;99.90
10512;DHT22;5304;48.604;2.096;2023-11-18T14:18:43;11.70;99.90
10512;DHT22;5304;48.604;2.096;2023-11-18T14:21:28;11.80;99.90
10512;DHT22;5304;48.604;2.096;2023-11-18T14:24:12;11.70;99.90
10512;DHT22;5304;48.604;2.096;2023-11-18T14:26:56;11.80;99.90
10512;DHT22;5304;48.604;2.096;2023-11-18T14:29:41;11.80;99.90
10512;DHT22;5304;48.604;2.096;2023-11-18T14:32:25;11.80;99.90
10512;DHT22;5304;48.604;2.096;2023-11-18T14:35:10;11.90;99.90
10512;DHT22;5304;48.604;2.096;2023-11-18T14:37:55;11.80;99.90
10512;DHT22;5304;48.604;2.096;2023-11-18T14:40:40;11.90;99.90
10512;DHT22;5304;48.604;2.096;2023-11-18T14:43:25;11.90;99.90
10512;DHT22;5304;48.604;2.096;2023-11-18T14:46:10;11.80;99.90
10512;DHT22;5304;48.604;2.096;2023-11-18T14:48:54;11.90;99.90
10512;DHT22;5304;48.604;2.096;2023-11-18T14:51:40;11.80;99.90
10512;DHT22;5304;48.604;2.096;2023-11-18T14:54:24;11.90;99.90
10512;DHT22;5304;48.604;2.096;2023-11-18T14:57:08;11.90;99.90
10512;DHT22;5304;48.604;2.096;2023-11-18T14:59:53;11.90;99.90
10512;DHT22;5304;48.604;2.096;2023-11-18T15:02:37;11.90;99.90
10512;DHT22;5304;48.604;2.096;2023-11-18T15:05:21;11.90;99.90
10512;DHT22;5304;48.604;2.096;2023-11-18T15:08:06;12.00;99.90
10512;DHT22;5304;48.604;2.096;2023-11-18T15:10:53;12.00;99.90
10512;DHT22;5304;48.604;2.096;2023-11-18T15:13:37;12.00;99.90
10512;DHT22;5304;48.604;2.096;2023-11-18T15:16:23;12.00;99.90
10512;DHT22;5304;48.604;2.096;2023-11-18T15:19:07;12.00;99.90
10512;DHT22;5304;48.604;2.096;2023-11-18T15:21:52;12.00;99.90
10512;DHT22;5304;48.604;2.096;2023-11-18T15:24:36;12.00;99.90
10512;DHT22;5304;48.604;2.096;2023-11-18T15:27:20;12.00;99.90
10512;DHT22;5304;48.604;2.096;2023-11-18T15:30:07;12.10;99.90
10512;DHT22;5304;48.604;2.096;2023-11-18T15:32:54;12.10;99.90
10512;DHT22;5304;48.604;2.096;2023-11-18T15:35:39;12.10;99.90
10512;DHT22;5304;48.604;2.096;2023-11-18T15:38:25;12.10;99.90
10512;DHT22;5304;48.604;2.096;2023-11-18T15:41:09;12.20;99.90
10512;DHT22;5304;48.604;2.096;2023-11-18T15:43:55;12.10;99.90
10512;DHT22;5304;48.604;2.096;2023-11-18T15:46:39;12.20;99.90
10512;DHT22;5304;48.604;2.096;2023-11-18T15:49:24;12.20;99.90
10512;DHT22;5304;48.604;2.096;2023-11-18T15:52:09;12.20;99.90
10512;DHT22;5304;48.604;2.096;2023-11-18T15:54:55;12.20;99.90
10512;DHT22;5304;48.604;2.096;2023-11-18T15:57:43;12.20;99.90
10512;DHT22;5304;48.604;2.096;2023-11-18T16:00:27;12.20;99.90
10512;DHT22;5304;48.604;2.096;2023-11-18T16:03:12;12.30;99.90
10512;DHT22;5304;48.604;2.096;2023-11-18T16:05:57;12.30;99.90
10512;DHT22;5304;48.604;2.096;2023-11-18T16:08:41;12.30;99.90
10512;DHT22;5304;48.604;2.096;2023-11-18T16:11:29;12.30;99.90
10512;DHT22;5304;48.604;2.096;2023-11-18T16:14:14;12.40;99.90
10512;DHT22;5304;48.604;2.096;2023-11-18T16:16:59;12.40;99.90
10512;DHT22;5304;48.604;2.096;2023-11-18T16:19:44;12.30;99.90
10512;DHT22;5304;48.604;2.096;2023-11-18T16:22:28;12.30;99.90
10512;DHT22;5304;48.604;2.096;2023-11-18T16:25:13;12.30;99.90
10512;DHT22;5304;48.604;2.096;2023-11-18T16:28:01;12.50;99.90
10512;DHT22;5304;48.604;2.096;2023-11-18T16:30:46;12.40;99.90
10512;DHT22;5304;48.604;2.096;2023-11-18T16:33:30;12.30;99.90
10512;DHT22;5304;48.604;2.096;2023-11-18T16:36:24;12.40;99.90
10512;DHT22;5304;48.604;2.096;2023-11-18T16:39:09;12.40;99.90
10512;DHT22;5304;48.604;2.096;2023-11-18T16:41:53;12.40;99.90
10512;DHT22;5304;48.604;2.096;2023-11-18T16:44:38;12.50;99.90
10512;DHT22;5304;48.604;2.096;2023-11-18T16:47:22;12.40;99.90
10512;DHT22;5304;48.604;2.096;2023-11-18T16:50:11;12.40;99.90
10512;DHT22;5304;48.604;2.096;2023-11-18T16:52:55;12.50;99.90
10512;DHT22;5304;48.604;2.096;2023-11-18T16:55:40;12.60;99.90
10512;DHT22;5304;48.604;2.096;2023-11-18T16:58:24;12.50;99.90
10512;DHT22;5304;48.604;2.096;2023-11-18T17:01:09;12.70;99.90
10512;DHT22;5304;48.604;2.096;2023-11-18T17:03:53;12.60;99.90
10512;DHT22;5304;48.604;2.096;2023-11-18T17:06:38;12.70;99.90
10512;DHT22;5304;48.604;2.096;2023-11-18T17:09:22;12.70;99.90
10512;DHT22;5304;48.604;2.096;2023-11-18T17:12:07;12.70;99.90
10512;DHT22;5304;48.604;2.096;2023-11-18T17:14:51;12.70;99.90
10512;DHT22;5304;48.604;2.096;2023-11-18T17:17:36;12.70;99.90
10512;DHT22;5304;48.604;2.096;2023-11-18T17:20:21;12.70;99.90
10512;DHT22;5304;48.604;2.096;2023-11-18T17:23:05;12.80;99.90
10512;DHT22;5304;48.604;2.096;2023-11-18T17:25:49;12.80;99.90
10512;DHT22;5304;48.604;2.096;2023-11-18T17:28:33;12.80;99.90
10512;DHT22;5304;48.604;2.096;2023-11-18T17:31:19;12.70;99.90
10512;DHT22;5304;48.604;2.096;2023-11-18T17:34:03;12.80;99.90
10512;DHT22;5304;48.604;2.096;2023-11-18T17:36:48;12.70;99.90
10512;DHT22;5304;48.604;2.096;2023-11-18T17:39:34;12.80;99.90
10512;DHT22;5304;48.604;2.096;2023-11-18T17:42:19;12.90;99.90
10512;DHT22;5304;48.604;2.096;2023-11-18T17:45:03;12.80;99.90
10512;DHT22;5304;48.604;2.096;2023-11-18T17:47:49;12.90;99.90
10512;DHT22;5304;48.604;2.096;2023-11-18T17:50:33;12.90;99.90
10512;DHT22;5304;48.604;2.096;2023-11-18T17:53:17;12.90;99.90
10512;DHT22;5304;48.604;2.096;2023-11-18T17:56:03;12.90;99.90
10512;DHT22;5304;48.604;2.096;2023-11-18T17:58:49;12.80;99.90
10512;DHT22;5304;48.604;2.096;2023-11-18T18:01:35;12.80;99.90
10512;DHT22;5304;48.604;2.096;2023-11-18T18:04:19;12.90;99.90
10512;DHT22;5304;48.604;2.096;2023-11-18T18:07:04;12.90;99.90
10512;DHT22;5304;48.604;2.096;2023-11-18T18:09:48;12.90;99.90
10512;DHT22;5304;48.604;2.096;2023-11-18T18:12:34;12.90;99.90
10512;DHT22;5304;48.604;2.096;2023-11-18T18:15:20;12.90;99.90
10512;DHT22;5304;48.604;2.096;2023-11-18T18:18:04;12.90;99.90
10512;DHT22;5304;48.604;2.096;2023-11-18T18:20:49;13.00;99.90
10512;DHT22;5304;48.604;2.096;2023-11-18T18:23:33;12.90;99.90
10512;DHT22;5304;48.604;2.096;2023-11-18T18:26:18;13.00;99.90
10512;DHT22;5304;48.604;2.096;2023-11-18T18:29:02;12.90;99.90
10512;DHT22;5304;48.604;2.096;2023-11-18T18:31:46;13.00;99.90
10512;DHT22;5304;48.604;2.096;2023-11-18T18:34:31;13.10;99.90
10512;DHT22;5304;48.604;2.096;2023-11-18T18:37:15;13.00;99.90
10512;DHT22;5304;48.604;2.096;2023-11-18T18:39:59;13.00;99.90
10512;DHT22;5304;48.604;2.096;2023-11-18T18:42:45;13.00;99.90
10512;DHT22;5304;48.604;2.096;2023-11-18T18:45:29;13.10;99.90
10512;DHT22;5304;48.604;2.096;2023-11-18T18:48:14;13.00;99.90
10512;DHT22;5304;48.604;2.096;2023-11-18T18:50:58;13.00;99.90
10512;DHT22;5304;48.604;2.096;2023-11-18T18:53:43;13.00;99.90
10512;DHT22;5304;48.604;2.096;2023-11-18T18:56:27;13.10;99.90
10512;DHT22;5304;48.604;2.096;2023-11-18T18:59:12;13.10;99.90
10512;DHT22;5304;48.604;2.096;2023-11-18T19:01:57;13.10;99.90
10512;DHT22;5304;48.604;2.096;2023-11-18T19:04:41;13.10;99.90
10512;DHT22;5304;48.604;2.096;2023-11-18T19:07:26;13.10;99.90
10512;DHT22;5304;48.604;2.096;2023-11-18T19:10:12;13.10;99.90
10512;DHT22;5304;48.604;2.096;2023-11-18T19:12:56;13.10;99.90
10512;DHT22;5304;48.604;2.096;2023-11-18T19:15:44;13.10;99.90
10512;DHT22;5304;48.604;2.096;2023-11-18T19:18:28;13.20;99.90
10512;DHT22;5304;48.604;2.096;2023-11-18T19:21:12;13.20;99.90
10512;DHT22;5304;48.604;2.096;2023-11-18T19:23:56;13.20;99.90
10512;DHT22;5304;48.604;2.096;2023-11-18T19:26:41;13.20;99.90
10512;DHT22;5304;48.604;2.096;2023-11-18T19:29:25;13.10;99.90
10512;DHT22;5304;48.604;2.096;2023-11-18T19:32:11;13.20;99.90
10512;DHT22;5304;48.604;2.096;2023-11-18T19:34:55;13.20;99.90
10512;DHT22;5304;48.604;2.096;2023-11-18T19:37:39;13.10;99.90
10512;DHT22;5304;48.604;2.096;2023-11-18T19:40:24;13.20;99.90
10512;DHT22;5304;48.604;2.096;2023-11-18T19:43:08;13.20;99.90
10512;DHT22;5304;48.604;2.096;2023-11-18T19:45:53;13.20;99.90
10512;DHT22;5304;48.604;2.096;2023-11-18T19:48:38;13.20;99.90
10512;DHT22;5304;48.604;2.096;2023-11-18T19:51:22;13.10;99.90
10512;DHT22;5304;48.604;2.096;2023-11-18T19:54:06;13.20;99.90
10512;DHT22;5304;48.604;2.096;2023-11-18T19:56:50;13.20;99.90
10512;DHT22;5304;48.604;2.096;2023-11-18T19:59:35;13.20;99.90
10512;DHT22;5304;48.604;2.096;2023-11-18T20:02:19;13.10;99.90
10512;DHT22;5304;48.604;2.096;2023-11-18T20:05:03;13.20;99.90
10512;DHT22;5304;48.604;2.096;2023-11-18T20:07:48;13.20;99.90
10512;DHT22;5304;48.604;2.096;2023-11-18T20:10:33;13.20;99.90
10512;DHT22;5304;48.604;2.096;2023-11-18T20:13:17;13.10;99.90
10512;DHT22;5304;48.604;2.096;2023-11-18T20:16:02;13.30;99.90
10512;DHT22;5304;48.604;2.096;2023-11-18T20:18:48;13.20;99.90
10512;DHT22;5304;48.604;2.096;2023-11-18T20:21:32;13.20;99.90
10512;DHT22;5304;48.604;2.096;2023-11-18T20:24:17;13.30;99.90
10512;DHT22;5304;48.604;2.096;2023-11-18T20:27:01;13.30;99.90
10512;DHT22;5304;48.604;2.096;2023-11-18T20:29:46;13.30;99.90
10512;DHT22;5304;48.604;2.096;2023-11-18T20:32:33;13.40;99.90
10512;DHT22;5304;48.604;2.096;2023-11-18T20:35:17;13.30;99.90
10512;DHT22;5304;48.604;2.096;2023-11-18T20:38:03;13.30;99.90
10512;DHT22;5304;48.604;2.096;2023-11-18T20:40:47;13.50;99.90
10512;DHT22;5304;48.604;2.096;2023-11-18T20:43:32;13.60;99.90
10512;DHT22;5304;48.604;2.096;2023-11-18T20:46:16;13.50;99.90
10512;DHT22;5304;48.604;2.096;2023-11-18T20:49:01;13.50;99.90
10512;DHT22;5304;48.604;2.096;2023-11-18T20:51:45;13.50;99.90
10512;DHT22;5304;48.604;2.096;2023-11-18T20:54:29;13.40;99.90
10512;DHT22;5304;48.604;2.096;2023-11-18T20:57:13;13.50;99.90
10512;DHT22;5304;48.604;2.096;2023-11-18T20:59:59;13.50;99.90
10512;DHT22;5304;48.604;2.096;2023-11-18T21:02:44;13.60;99.90
10512;DHT22;5304;48.604;2.096;2023-11-18T21:05:30;13.60;99.90
10512;DHT22;5304;48.604;2.096;2023-11-18T21:08:14;13.60;99.90
10512;DHT22;5304;48.604;2.096;2023-11-18T21:11:00;13.60;99.90
10512;DHT22;5304;48.604;2.096;2023-11-18T21:13:46;13.60;99.90
10512;DHT22;5304;48.604;2.096;2023-11-18T21:16:32;13.60;99.90
10512;DHT22;5304;48.604;2.096;2023-11-18T21:19:16;13.60;99.90
10512;DHT22;5304;48.604;2.096;2023-11-18T21:22:01;13.60;99.90
10512;DHT22;5304;48.604;2.096;2023-11-18T21:24:45;13.60;99.90
10512;DHT22;5304;48.604;2.096;2023-11-18T21:27:30;13.70;99.90
10512;DHT22;5304;48.604;2.096;2023-11-18T21:30:14;13.70;99.90
10512;DHT22;5304;48.604;2.096;2023-11-18T21:32:58;13.70;99.90
10512;DHT22;5304;48.604;2.096;2023-11-18T21:35:46;13.70;99.90
10512;DHT22;5304;48.604;2.096;2023-11-18T21:38:31;13.70;99.90
10512;DHT22;5304;48.604;2.096;2023-11-18T21:41:15;13.70;99.90
10512;DHT22;5304;48.604;2.096;2023-11-18T21:44:00;13.70;99.90
